Honaunau, HI

10:39 AM HST on September 16, 2014 (GMT -1000)
Bradshaw Army Air Field | Change Station
CLOSE
Current Station
Airport
Location: Bradshaw AFB,
Elevation: 6191 ft
Nearby Weather Stations
Active Advisory: High Surf Advisory Active Notice: Record Report

Elev 6191 ft 19.76 °N, 155.55 °W | Updated 13 minutes ago

Partly Cloudy
Partly Cloudy
68 °F
Feels Like 68 °F
N
5
Wind Variable Wind from WSW

Today
High -- | Low -- °F
--% Chance of Precip.
Yesterday
High -- | Low -- °F
Precip. -- in
6:11 AM 6:25 PM
Last Quarter, 42% visible
Pressure 30.34 in
Visibility 12.0 miles
Clouds Few 1800 ft
Dew Point 57 °F
Humidity 68%
Rainfall 0.01 in
Snow Depth Not available.
UV 9 out of 12
Pollen Not available.
Air Quality Not available.
Flu Activity Not available.
SPECI PHSF 162026Z AUTO 24004KT 12SM FEW018 20/14 A3034 RMK AO2

More Conditions Fewer Conditions

Pressure 30.34 in
Visibility 12.0 miles
Clouds Few 1800 ft
Dew Point 57 °F
Humidity 68%
Rainfall 0.01 in
Snow Depth Not available.
UV 9 out of 12
Pollen Not available.
Air Quality Not available.
Flu Activity Not available.
SPECI PHSF 162026Z AUTO 24004KT 12SM FEW018 20/14 A3034 RMK AO2

More Conditions Fewer Conditions

10-Day Weather Forecast

Almanac

Astronomy

Sep. 16, 2014 Rise Set
Actual Time 6:11 AM HST 6:25 PM HST
Civil Twilight 5:49 AM HST 6:46 PM HST
Nautical Twilight 5:23 AM HST 7:12 PM HST
Astronomical Twilight 4:58 AM HST 7:38 PM HST
Moon 12:04 AM HST 1:23 PM HST
Length of Visible Light 12h 57m
Length of Day
12h 13m
Tomorrow will be 1m 6s shorter.
Last Quarter, 42% of the Moon is Illuminated
Today
Last Quarter
Sep 24
New
Oct 1
First Quarter
Oct 8
Full
Oct 15
Last Quarter

Today's Extremes

State Highs State Lows

Community

WunderPhotos

Upload Photos

1,753,871 photos uploaded!

Nearby

Snow Depth

Station Depth Elevation
No new snow has been reported.

Earthquake Activity

City Distance Mag. Time & Date
No recent earthquake activity has been reported nearby.
Minimum magnitude displayed is 2.5.

Coastal Water Temperatures

Place Temperature
No Stations Reporting

Nearby Weather Stations